Time;durP1;ratioP1;P1;durP2;ratioP2;P2;SDS_P1;SDS_P2;PMS_P1;PMS_P2;Temp;Humidity;BMP_temperature;BMP_pressure;BME280_temperature;BME280_humidity;BME280_pressure;Samples;Min_cycle;Max_cycle;Signal;HPM_P1;HPM_P2
2022/07/25 00:01:41;;;;;;;0.95;0.70;;;25.30;57.00;;;;;;5071085;28;20036;-72
2022/07/25 00:04:07;;;;;;;2.13;1.08;;;25.30;57.20;;;;;;5070752;28;20066;-72
2022/07/25 00:06:34;;;;;;;2.80;1.13;;;25.30;57.20;;;;;;5069788;28;20031;-72
2022/07/25 00:09:00;;;;;;;1.73;0.60;;;25.30;57.20;;;;;;5049031;28;20021;-72
2022/07/25 00:11:26;;;;;;;2.13;0.90;;;25.30;57.40;;;;;;5051841;28;20470;-72
2022/07/25 00:13:51;;;;;;;2.65;0.70;;;25.30;57.30;;;;;;5052247;28;20035;-72
2022/07/25 00:16:17;;;;;;;1.45;0.70;;;25.30;57.40;;;;;;5052513;28;20032;-72
2022/07/25 00:18:43;;;;;;;1.95;0.80;;;25.30;57.40;;;;;;5052404;28;20028;-72
2022/07/25 00:21:08;;;;;;;1.50;0.90;;;25.30;57.40;;;;;;5051188;28;20104;-72
2022/07/25 00:23:34;;;;;;;1.02;0.70;;;25.30;57.40;;;;;;5050814;28;20052;-72
2022/07/25 00:26:00;;;;;;;3.35;0.88;;;25.30;57.50;;;;;;5052252;28;20025;-72
2022/07/25 00:28:25;;;;;;;1.80;0.80;;;25.30;57.50;;;;;;5052350;28;20024;-72
2022/07/25 00:30:51;;;;;;;1.65;0.80;;;25.30;57.50;;;;;;5052159;28;20024;-72
2022/07/25 00:33:16;;;;;;;1.50;1.05;;;25.30;57.50;;;;;;5051569;28;20059;-72
2022/07/25 00:35:42;;;;;;;1.08;0.63;;;25.30;57.70;;;;;;5051072;28;20029;-72
2022/07/25 00:38:08;;;;;;;0.98;0.80;;;25.30;57.70;;;;;;5050787;28;20151;-72
2022/07/25 00:40:34;;;;;;;0.80;0.60;;;25.30;57.70;;;;;;5052161;28;20475;-72
2022/07/25 00:42:59;;;;;;;1.67;0.70;;;25.30;57.80;;;;;;5050976;28;20163;-72
2022/07/25 00:45:25;;;;;;;1.67;0.73;;;25.30;57.90;;;;;;5052117;28;20028;-72
2022/07/25 00:47:51;;;;;;;1.20;0.80;;;25.30;57.90;;;;;;5059366;28;20427;-72
2022/07/25 00:50:16;;;;;;;1.77;0.90;;;25.30;58.90;;;;;;5072169;28;20036;-72
2022/07/25 00:52:42;;;;;;;2.00;0.80;;;25.30;57.90;;;;;;5071858;28;20517;-71
2022/07/25 00:55:08;;;;;;;2.95;0.88;;;25.30;58.10;;;;;;5054211;28;20028;-72
2022/07/25 00:57:33;;;;;;;1.27;0.80;;;25.30;58.00;;;;;;5070624;28;20024;-71
2022/07/25 00:59:59;;;;;;;0.82;0.52;;;25.30;58.10;;;;;;5071935;28;20422;-72
2022/07/25 01:02:24;;;;;;;3.17;0.80;;;25.30;59.10;;;;;;5072132;28;20027;-72
2022/07/25 01:04:50;;;;;;;1.85;0.65;;;25.30;58.20;;;;;;5072019;28;20406;-71
2022/07/25 01:07:16;;;;;;;1.50;0.70;;;25.30;58.00;;;;;;5071693;28;20475;-72
2022/07/25 01:09:41;;;;;;;2.28;1.00;;;25.30;58.10;;;;;;5054282;28;20033;-72
2022/07/25 01:12:07;;;;;;;1.30;0.82;;;25.30;58.10;;;;;;5053756;28;20131;-72
2022/07/25 01:14:33;;;;;;;1.50;0.90;;;25.30;58.00;;;;;;5071837;28;20036;-71
2022/07/25 01:16:58;;;;;;;2.17;1.30;;;25.30;58.10;;;;;;5070496;28;20025;-71
2022/07/25 01:19:24;;;;;;;2.35;0.82;;;25.30;58.10;;;;;;5070314;28;20025;-72
2022/07/25 01:21:49;;;;;;;2.58;0.95;;;25.30;58.10;;;;;;5071705;28;20029;-72
2022/07/25 01:24:15;;;;;;;1.25;0.80;;;25.20;58.00;;;;;;5070677;28;20474;-72
2022/07/25 01:26:41;;;;;;;1.83;0.93;;;25.20;58.00;;;;;;5071948;28;20567;-72
2022/07/25 01:29:06;;;;;;;1.33;0.60;;;25.20;58.00;;;;;;5071813;28;20552;-71
2022/07/25 01:31:32;;;;;;;1.20;0.73;;;25.20;58.00;;;;;;5070632;28;20475;-71
2022/07/25 01:33:58;;;;;;;1.17;0.70;;;25.30;58.10;;;;;;5056426;28;20051;-72
2022/07/25 01:36:23;;;;;;;2.13;0.80;;;25.20;58.00;;;;;;5051476;28;20506;-72
2022/07/25 01:38:49;;;;;;;1.67;0.90;;;25.30;58.20;;;;;;5051562;28;20502;-72
2022/07/25 01:41:14;;;;;;;1.50;0.73;;;25.20;58.20;;;;;;5051505;28;20051;-72
2022/07/25 01:43:40;;;;;;;2.90;0.88;;;25.20;58.20;;;;;;5051553;28;20029;-72
2022/07/25 01:46:06;;;;;;;0.73;0.73;;;25.30;58.40;;;;;;5054327;28;20021;-72
2022/07/25 01:48:31;;;;;;;3.05;0.77;;;25.20;58.30;;;;;;5055353;28;20479;-72
2022/07/25 01:50:57;;;;;;;2.65;1.00;;;25.20;58.30;;;;;;5054866;28;20021;-72
2022/07/25 01:53:23;;;;;;;1.35;0.73;;;25.20;58.30;;;;;;5054937;28;20056;-72
2022/07/25 01:55:48;;;;;;;1.88;0.90;;;25.20;58.30;;;;;;5054915;28;20021;-72
2022/07/25 01:58:14;;;;;;;2.13;0.80;;;25.20;58.30;;;;;;5053442;28;20394;-72
2022/07/25 02:00:39;;;;;;;1.10;1.00;;;25.20;58.30;;;;;;5053723;28;20587;-72
2022/07/25 02:05:49;;;;;;;4.20;0.98;;;25.20;58.30;;;;;;5054668;28;20028;-73
2022/07/25 02:08:15;;;;;;;1.17;0.70;;;25.20;58.30;;;;;;5069945;28;20032;-73
2022/07/25 02:10:40;;;;;;;1.60;1.00;;;25.20;58.30;;;;;;5073569;28;20021;-73
2022/07/25 02:13:06;;;;;;;2.72;0.98;;;25.20;58.30;;;;;;5074514;28;20056;-73
2022/07/25 02:15:31;;;;;;;1.95;0.88;;;25.20;58.40;;;;;;5073357;28;20021;-73
2022/07/25 02:17:57;;;;;;;3.22;0.80;;;25.20;58.30;;;;;;5074526;28;20538;-72
2022/07/25 02:20:23;;;;;;;1.70;0.70;;;25.20;58.40;;;;;;5073235;28;20032;-72
2022/07/25 02:22:48;;;;;;;2.13;1.00;;;25.20;58.40;;;;;;5074365;28;20662;-72
2022/07/25 02:25:14;;;;;;;1.35;0.90;;;25.20;58.40;;;;;;5074518;28;20024;-73
2022/07/25 02:27:40;;;;;;;1.60;0.98;;;25.20;58.40;;;;;;5073322;28;20060;-73
2022/07/25 02:30:06;;;;;;;1.83;0.93;;;25.20;58.40;;;;;;5074137;28;20020;-73
2022/07/25 02:32:31;;;;;;;1.27;0.90;;;25.20;58.40;;;;;;5069796;28;20029;-72
2022/07/25 02:34:57;;;;;;;1.73;1.10;;;25.20;58.40;;;;;;5054055;28;20025;-72
2022/07/25 02:37:23;;;;;;;0.70;0.70;;;25.20;58.40;;;;;;5053930;28;20036;-72
2022/07/25 02:39:49;;;;;;;1.60;0.95;;;25.20;59.30;;;;;;5052949;28;20025;-72
2022/07/25 02:42:14;;;;;;;1.17;0.90;;;25.20;58.40;;;;;;5054080;28;20083;-72
2022/07/25 02:44:40;;;;;;;1.42;0.93;;;25.20;58.40;;;;;;5053980;28;20483;-72
2022/07/25 02:47:06;;;;;;;1.30;1.00;;;25.20;58.50;;;;;;5054050;28;20025;-72
2022/07/25 02:49:31;;;;;;;1.60;0.90;;;25.20;58.40;;;;;;5053664;28;20029;-72
2022/07/25 02:51:57;;;;;;;1.70;0.98;;;25.20;58.40;;;;;;5053747;28;20036;-72
2022/07/25 02:54:22;;;;;;;2.05;0.95;;;25.20;59.30;;;;;;5054049;28;20025;-72
2022/07/25 02:56:48;;;;;;;2.03;0.85;;;25.20;58.40;;;;;;5052273;28;20033;-72
2022/07/25 02:59:14;;;;;;;1.30;0.90;;;25.10;58.30;;;;;;5053658;28;20030;-72
2022/07/25 03:01:39;;;;;;;1.30;0.82;;;25.20;58.30;;;;;;5053742;28;20025;-72
2022/07/25 03:04:05;;;;;;;3.92;1.00;;;25.10;58.30;;;;;;5053522;28;20040;-71
2022/07/25 03:06:30;;;;;;;1.63;1.00;;;25.10;58.30;;;;;;5035894;28;20067;-71
2022/07/25 03:08:56;;;;;;;2.67;1.27;;;25.20;58.40;;;;;;5053474;28;20025;-71
2022/07/25 03:11:22;;;;;;;3.22;0.90;;;25.10;58.30;;;;;;5053405;28;20033;-71
2022/07/25 03:13:47;;;;;;;1.80;0.80;;;25.10;58.30;;;;;;5052403;28;20045;-71
2022/07/25 03:16:13;;;;;;;1.98;0.90;;;25.10;58.30;;;;;;5052121;28;20029;-71
2022/07/25 03:18:38;;;;;;;1.42;0.90;;;25.10;58.30;;;;;;5052056;28;20077;-72
2022/07/25 03:21:04;;;;;;;3.22;0.95;;;25.10;58.40;;;;;;5053436;28;20017;-72
2022/07/25 03:23:30;;;;;;;1.27;0.93;;;25.10;58.40;;;;;;5052110;28;20054;-72
2022/07/25 03:25:56;;;;;;;2.35;1.00;;;25.10;58.50;;;;;;5052073;28;20092;-72
2022/07/25 03:28:23;;;;;;;1.58;0.95;;;25.10;58.50;;;;;;5035281;28;20388;-72
2022/07/25 03:30:49;;;;;;;2.95;1.25;;;25.10;58.50;;;;;;5052057;28;20029;-72
2022/07/25 03:33:14;;;;;;;3.95;1.13;;;25.10;58.70;;;;;;5051531;28;20380;-72
2022/07/25 03:35:40;;;;;;;3.28;1.17;;;25.10;58.70;;;;;;5053163;28;20371;-72
2022/07/25 03:38:06;;;;;;;2.60;1.00;;;25.10;58.60;;;;;;5051773;28;20033;-72
2022/07/25 03:40:32;;;;;;;3.63;1.25;;;25.10;58.60;;;;;;5052939;28;20526;-72
2022/07/25 03:42:57;;;;;;;1.50;1.02;;;25.10;58.60;;;;;;5051660;28;20059;-72
2022/07/25 03:45:23;;;;;;;2.60;1.10;;;25.10;58.50;;;;;;5051731;28;20017;-72
2022/07/25 03:47:49;;;;;;;3.35;1.05;;;25.10;58.60;;;;;;5051451;28;20048;-72
2022/07/25 03:50:14;;;;;;;1.92;0.95;;;25.10;58.50;;;;;;5052618;28;20056;-73
2022/07/25 03:52:40;;;;;;;2.63;1.33;;;25.10;58.50;;;;;;5051669;28;20112;-73
2022/07/25 03:55:06;;;;;;;2.15;1.13;;;25.10;58.50;;;;;;5052645;28;20035;-73
2022/07/25 03:57:32;;;;;;;1.45;0.98;;;25.10;58.60;;;;;;5051564;28;20112;-73
2022/07/25 03:59:57;;;;;;;1.75;0.95;;;25.10;58.60;;;;;;5052630;28;20100;-73
2022/07/25 04:02:23;;;;;;;2.25;1.30;;;25.10;58.60;;;;;;5051195;28;20029;-73
2022/07/25 04:04:49;;;;;;;1.65;1.15;;;25.10;58.60;;;;;;5052577;28;20135;-72
2022/07/25 04:07:14;;;;;;;2.90;0.82;;;25.10;58.60;;;;;;5050597;28;20446;-72
2022/07/25 04:09:41;;;;;;;2.08;1.05;;;25.10;58.60;;;;;;5052653;28;20025;-72
2022/07/25 04:12:06;;;;;;;1.15;0.80;;;25.10;58.60;;;;;;5052614;28;20131;-72
2022/07/25 04:14:32;;;;;;;2.33;1.10;;;25.10;58.60;;;;;;5052449;28;20119;-72
2022/07/25 04:16:58;;;;;;;1.63;1.02;;;25.10;58.60;;;;;;5051089;28;20487;-72
2022/07/25 04:19:24;;;;;;;2.70;1.38;;;25.10;58.60;;;;;;5052179;28;20021;-72
2022/07/25 04:21:49;;;;;;;1.50;1.00;;;25.10;58.50;;;;;;5052407;28;20031;-72
2022/07/25 04:24:15;;;;;;;0.90;0.70;;;25.10;58.50;;;;;;5052218;28;20023;-72
2022/07/25 04:26:41;;;;;;;1.45;1.00;;;25.00;58.50;;;;;;5051217;28;20032;-72
2022/07/25 04:29:06;;;;;;;1.63;0.90;;;25.10;58.60;;;;;;5052193;28;20021;-72
2022/07/25 04:31:32;;;;;;;1.58;1.10;;;25.10;58.50;;;;;;5051953;28;20146;-72
2022/07/25 04:33:58;;;;;;;2.38;1.25;;;25.00;58.50;;;;;;5052057;28;20391;-72
2022/07/25 04:36:23;;;;;;;2.28;0.82;;;25.10;58.60;;;;;;5052144;28;20402;-72
2022/07/25 04:38:49;;;;;;;1.80;1.00;;;25.10;58.60;;;;;;5050995;28;20028;-72
2022/07/25 04:41:15;;;;;;;1.20;0.90;;;25.00;58.50;;;;;;5052105;28;20027;-72
2022/07/25 04:43:40;;;;;;;2.22;1.20;;;25.00;58.50;;;;;;5051025;28;20395;-72
2022/07/25 04:46:06;;;;;;;2.40;0.95;;;25.00;58.60;;;;;;5051907;28;20108;-72
2022/07/25 04:48:32;;;;;;;2.00;1.00;;;25.00;58.60;;;;;;5052034;28;20025;-72
2022/07/25 04:50:57;;;;;;;2.08;1.05;;;25.00;58.70;;;;;;5034283;28;20098;-72
2022/07/25 04:53:23;;;;;;;1.60;1.00;;;25.00;58.60;;;;;;5051951;28;20025;-72
2022/07/25 04:55:49;;;;;;;2.47;1.23;;;25.00;58.60;;;;;;5050894;28;20455;-72
2022/07/25 04:58:14;;;;;;;2.67;1.17;;;25.00;58.60;;;;;;5050666;28;20044;-72
2022/07/25 05:00:40;;;;;;;1.27;0.93;;;25.00;58.60;;;;;;5033991;28;20025;-71
2022/07/25 05:03:06;;;;;;;2.22;1.10;;;25.00;58.60;;;;;;5034287;28;20017;-72
2022/07/25 05:05:31;;;;;;;1.88;1.20;;;25.00;58.70;;;;;;5050707;28;20025;-72
2022/07/25 05:07:58;;;;;;;2.47;0.88;;;25.00;58.70;;;;;;5051892;28;20092;-72
2022/07/25 05:10:24;;;;;;;2.95;1.42;;;25.00;58.70;;;;;;5034161;28;20031;-72
2022/07/25 05:12:50;;;;;;;2.03;1.15;;;25.00;58.70;;;;;;5050584;28;20124;-72
2022/07/25 05:15:15;;;;;;;2.00;1.08;;;25.00;58.70;;;;;;5050575;28;20120;-72
2022/07/25 05:17:41;;;;;;;3.00;1.20;;;25.00;58.70;;;;;;5050734;28;20025;-72
2022/07/25 05:20:07;;;;;;;1.63;1.00;;;25.00;58.70;;;;;;5037028;28;20025;-72
2022/07/25 05:22:33;;;;;;;1.55;1.10;;;25.00;58.60;;;;;;5054343;28;20029;-72
2022/07/25 05:25:01;;;;;;;1.40;1.00;;;24.90;58.60;;;;;;5055631;28;20079;-72
2022/07/25 05:27:27;;;;;;;2.42;0.82;;;25.00;58.60;;;;;;5055420;28;20482;-72
2022/07/25 05:29:52;;;;;;;6.68;1.33;;;25.00;58.70;;;;;;5054047;28;20033;-72
2022/07/25 05:32:18;;;;;;;2.25;1.10;;;25.00;58.60;;;;;;5054108;28;20025;-72
2022/07/25 05:34:44;;;;;;;3.10;0.98;;;25.00;58.60;;;;;;5055318;28;20025;-72
2022/07/25 05:37:10;;;;;;;1.88;1.00;;;25.00;58.60;;;;;;5055573;28;20017;-71
2022/07/25 05:39:38;;;;;;;4.22;1.23;;;25.00;58.60;;;;;;5053898;28;20448;-71
2022/07/25 05:42:05;;;;;;;1.58;0.90;;;25.00;58.60;;;;;;5055889;28;20044;-72
2022/07/25 05:44:30;;;;;;;1.98;1.00;;;24.90;58.60;;;;;;5053480;28;20040;-72
2022/07/25 05:46:56;;;;;;;2.42;1.20;;;25.00;58.70;;;;;;5055519;28;20013;-71
2022/07/25 05:49:22;;;;;;;5.88;1.13;;;24.90;58.60;;;;;;5055068;28;20033;-71
2022/07/25 05:51:47;;;;;;;1.95;0.93;;;25.00;58.70;;;;;;5055075;28;20032;-71
2022/07/25 05:54:13;;;;;;;2.10;0.95;;;25.00;58.70;;;;;;5055046;28;20410;-71
2022/07/25 05:56:38;;;;;;;1.73;0.90;;;24.90;58.60;;;;;;5053623;28;20029;-72
2022/07/25 05:59:04;;;;;;;3.42;1.00;;;24.90;58.50;;;;;;5054819;28;20029;-71
2022/07/25 06:01:30;;;;;;;5.13;1.35;;;24.90;57.80;;;;;;5053564;28;20025;-71
2022/07/25 06:03:55;;;;;;;2.70;1.27;;;24.90;55.60;;;;;;5054942;28;20025;-71
2022/07/25 06:06:21;;;;;;;4.65;1.05;;;24.80;54.90;;;;;;5053414;28;20021;-71
2022/07/25 06:08:47;;;;;;;2.42;0.93;;;24.70;55.20;;;;;;5054715;28;20025;-71
2022/07/25 06:11:12;;;;;;;4.20;1.35;;;24.70;55.30;;;;;;5054796;28;20487;-71
2022/07/25 06:13:38;;;;;;;4.28;1.20;;;24.60;55.30;;;;;;5054436;28;20045;-71
2022/07/25 06:16:04;;;;;;;2.83;1.30;;;24.60;55.30;;;;;;5054562;28;20714;-71
2022/07/25 06:18:30;;;;;;;3.50;1.27;;;24.60;55.30;;;;;;5054874;28;20023;-71
2022/07/25 06:20:56;;;;;;;4.07;1.35;;;24.60;55.20;;;;;;5036816;28;20100;-71
2022/07/25 06:23:21;;;;;;;3.10;1.05;;;24.60;55.30;;;;;;5055139;28;20464;-71
2022/07/25 06:25:47;;;;;;;4.53;1.50;;;24.50;56.10;;;;;;5055012;28;20017;-71
2022/07/25 06:28:13;;;;;;;1.85;0.90;;;24.50;55.10;;;;;;5054689;28;20437;-71
2022/07/25 06:30:42;;;;;;;2.28;1.00;;;24.50;55.10;;;;;;5052992;28;20048;-71
2022/07/25 06:33:08;;;;;;;3.55;1.33;;;24.50;55.10;;;;;;5053585;28;20033;-71
2022/07/25 06:35:34;;;;;;;4.60;1.10;;;24.50;55.00;;;;;;5054540;28;20032;-71
2022/07/25 06:38:00;;;;;;;3.65;1.10;;;24.50;56.00;;;;;;5053428;28;20414;-71
2022/07/25 06:40:25;;;;;;;2.95;0.93;;;24.50;55.00;;;;;;5053141;28;20104;-71
2022/07/25 06:42:51;;;;;;;5.03;1.30;;;24.40;55.00;;;;;;5053548;28;20025;-71
2022/07/25 06:45:17;;;;;;;3.00;1.00;;;24.40;55.00;;;;;;5070947;28;20020;-71
2022/07/25 06:47:43;;;;;;;4.10;1.10;;;24.40;55.00;;;;;;5072478;28;20024;-71
2022/07/25 06:50:11;;;;;;;2.25;0.93;;;24.40;55.00;;;;;;5072740;28;20020;-71
2022/07/25 06:52:37;;;;;;;3.72;1.20;;;24.40;55.00;;;;;;5068500;28;20091;-74
2022/07/25 06:55:03;;;;;;;15.68;3.15;;;24.30;55.00;;;;;;5039266;28;20052;-71
2022/07/25 06:57:29;;;;;;;17.77;3.38;;;24.30;55.20;;;;;;5053265;28;20024;-71
2022/07/25 06:59:54;;;;;;;16.02;3.25;;;24.30;55.30;;;;;;5051496;28;20029;-71
2022/07/25 07:02:20;;;;;;;10.52;2.70;;;24.30;55.60;;;;;;5051092;28;20032;-71
2022/07/25 07:04:45;;;;;;;6.53;2.20;;;24.30;55.70;;;;;;5051019;28;20367;-71
2022/07/25 07:07:11;;;;;;;8.27;2.28;;;24.30;55.90;;;;;;5051219;28;20083;-71
2022/07/25 07:09:37;;;;;;;4.72;1.70;;;24.30;55.70;;;;;;5051229;28;20029;-71
2022/07/25 07:12:03;;;;;;;9.65;2.45;;;24.30;55.60;;;;;;5051101;28;20072;-71
2022/07/25 07:14:28;;;;;;;8.35;2.20;;;24.30;55.60;;;;;;5053143;28;20048;-71
2022/07/25 07:16:54;;;;;;;12.98;2.30;;;24.20;55.50;;;;;;5052177;28;20048;-71
2022/07/25 07:19:19;;;;;;;7.65;2.47;;;24.20;55.30;;;;;;5053256;28;20057;-71
2022/07/25 07:21:45;;;;;;;5.07;1.92;;;24.20;55.20;;;;;;5050867;28;20025;-71
2022/07/25 07:24:11;;;;;;;6.30;2.13;;;24.20;55.30;;;;;;5053205;28;20029;-71
2022/07/25 07:26:36;;;;;;;8.30;2.33;;;24.20;55.30;;;;;;5049954;28;20029;-71
2022/07/25 07:29:02;;;;;;;6.30;2.05;;;24.20;55.30;;;;;;5051918;28;20556;-71
2022/07/25 07:31:28;;;;;;;6.70;2.17;;;24.10;55.10;;;;;;5051844;28;20035;-71
2022/07/25 07:33:54;;;;;;;6.72;1.92;;;24.10;55.00;;;;;;5037394;28;20022;-71
2022/07/25 07:36:20;;;;;;;3.55;1.42;;;24.10;54.80;;;;;;5077387;28;20479;-71
2022/07/25 07:38:47;;;;;;;4.18;1.65;;;24.10;54.70;;;;;;5052389;28;20452;-71
2022/07/25 07:41:13;;;;;;;5.88;1.95;;;24.10;54.70;;;;;;5053134;28;20024;-71
2022/07/25 07:43:38;;;;;;;6.70;1.42;;;24.10;54.70;;;;;;5051870;28;20051;-71
2022/07/25 07:46:04;;;;;;;4.55;1.83;;;24.10;54.70;;;;;;5052848;28;20029;-71
2022/07/25 07:48:30;;;;;;;4.65;1.58;;;24.10;54.60;;;;;;5052963;28;20021;-71
2022/07/25 07:50:56;;;;;;;4.88;1.58;;;24.00;54.50;;;;;;5051418;28;20029;-71
2022/07/25 07:53:21;;;;;;;6.25;1.67;;;24.00;54.40;;;;;;5051390;28;20059;-71
2022/07/25 07:55:53;;;;;;;6.68;1.55;;;24.10;54.40;;;;;;5051649;28;20391;-71
2022/07/25 07:58:19;;;;;;;8.48;1.50;;;24.00;54.30;;;;;;5053013;28;20046;-71
2022/07/25 08:00:49;;;;;;;3.47;1.20;;;24.00;54.20;;;;;;5051166;28;20087;-71
2022/07/25 08:03:19;;;;;;;6.45;1.33;;;24.00;54.20;;;;;;5051350;28;20024;-71
2022/07/25 08:05:44;;;;;;;3.53;1.02;;;24.00;54.20;;;;;;5051581;28;20120;-71
2022/07/25 08:08:12;;;;;;;5.07;1.40;;;24.00;54.20;;;;;;5051294;28;20104;-71
2022/07/25 08:10:39;;;;;;;2.70;1.20;;;23.90;54.10;;;;;;5051093;28;20033;-71
2022/07/25 08:13:15;;;;;;;3.80;1.30;;;24.00;54.10;;;;;;5051144;28;20080;-71
2022/07/25 08:15:41;;;;;;;5.38;1.20;;;23.90;53.90;;;;;;5051317;28;20434;-71
2022/07/25 08:18:07;;;;;;;4.90;1.20;;;23.90;53.90;;;;;;5051134;28;20495;-71
2022/07/25 08:20:33;;;;;;;2.88;1.05;;;23.90;53.80;;;;;;5052241;28;20108;-71
2022/07/25 08:22:58;;;;;;;2.65;1.10;;;23.90;53.70;;;;;;5052204;28;20104;-71
2022/07/25 08:25:24;;;;;;;2.40;0.90;;;23.90;53.60;;;;;;5051023;28;20025;-71
2022/07/25 08:27:52;;;;;;;3.88;1.02;;;23.90;53.50;;;;;;5050759;28;20025;-71
2022/07/25 08:30:17;;;;;;;4.05;1.15;;;23.90;53.50;;;;;;5051334;28;20032;-71
2022/07/25 08:32:56;;;;;;;3.50;1.15;;;23.90;53.50;;;;;;5050986;28;20403;-71
2022/07/25 08:35:23;;;;;;;3.58;1.10;;;23.90;53.50;;;;;;5051944;28;20017;-71
2022/07/25 08:37:48;;;;;;;1.08;0.70;;;23.90;53.50;;;;;;5050835;28;20024;-71
2022/07/25 08:40:15;;;;;;;4.25;1.10;;;23.80;53.30;;;;;;5051051;28;20025;-71
2022/07/25 08:42:41;;;;;;;2.53;1.00;;;23.80;53.30;;;;;;5052115;28;20017;-71
2022/07/25 08:45:08;;;;;;;4.50;1.02;;;23.80;53.30;;;;;;5050818;28;20518;-71
2022/07/25 08:47:34;;;;;;;1.98;0.98;;;23.80;53.30;;;;;;5034405;28;20028;-71
2022/07/25 08:50:02;;;;;;;2.55;0.88;;;23.80;53.20;;;;;;5051016;28;20025;-71
2022/07/25 08:52:28;;;;;;;3.20;0.70;;;23.80;53.00;;;;;;5050735;28;20027;-71
2022/07/25 08:54:53;;;;;;;2.55;0.75;;;23.80;53.10;;;;;;5053738;28;20037;-71
2022/07/25 08:57:19;;;;;;;2.95;0.77;;;23.80;53.00;;;;;;5055058;28;20021;-71
2022/07/25 08:59:45;;;;;;;3.10;0.90;;;23.70;53.00;;;;;;5055946;28;20029;-71
2022/07/25 09:02:14;;;;;;;2.67;0.88;;;23.80;53.00;;;;;;5056016;28;20495;-71
2022/07/25 09:04:39;;;;;;;2.38;1.00;;;23.80;53.00;;;;;;5038178;28;20040;-71
2022/07/25 09:07:06;;;;;;;2.67;0.82;;;23.70;53.00;;;;;;5055831;28;20021;-71
2022/07/25 09:09:34;;;;;;;2.10;0.93;;;23.70;53.00;;;;;;5056017;28;20033;-71
2022/07/25 09:12:00;;;;;;;2.72;0.90;;;23.70;53.00;;;;;;5055754;28;20522;-71
2022/07/25 09:14:28;;;;;;;3.38;0.75;;;23.70;53.10;;;;;;5054658;28;20108;-71
2022/07/25 09:16:54;;;;;;;2.28;0.70;;;23.70;53.00;;;;;;5054519;28;20028;-71
2022/07/25 09:19:21;;;;;;;2.17;0.60;;;23.70;53.10;;;;;;5037862;28;20029;-71
2022/07/25 09:22:04;;;;;;;4.10;0.93;;;23.70;53.00;;;;;;5054130;28;20025;-71
2022/07/25 09:24:29;;;;;;;2.08;0.77;;;23.70;53.20;;;;;;5055658;28;20102;-71
2022/07/25 09:26:57;;;;;;;3.70;0.95;;;23.70;53.30;;;;;;5054094;28;20051;-71
2022/07/25 09:29:27;;;;;;;3.85;0.88;;;23.70;53.40;;;;;;5054415;28;20074;-71
2022/07/25 09:31:54;;;;;;;3.40;0.90;;;23.70;53.60;;;;;;5055394;28;20107;-71
2022/07/25 09:34:30;;;;;;;1.58;0.77;;;23.60;53.70;;;;;;5054005;28;20044;-71
2022/07/25 09:36:56;;;;;;;4.35;0.70;;;23.60;53.90;;;;;;5055163;28;20032;-71
2022/07/25 09:39:32;;;;;;;1.92;0.75;;;23.60;54.00;;;;;;5037555;28;20029;-71
2022/07/25 09:41:57;;;;;;;3.85;0.90;;;23.60;54.10;;;;;;5054092;28;20376;-71
2022/07/25 09:44:28;;;;;;;2.17;0.80;;;23.60;54.10;;;;;;5055359;28;20031;-71
2022/07/25 09:46:54;;;;;;;1.85;0.85;;;23.70;54.20;;;;;;5055044;28;20418;-71
2022/07/25 09:49:19;;;;;;;1.42;0.68;;;23.60;54.20;;;;;;5053917;28;20059;-71
2022/07/25 09:51:46;;;;;;;2.97;0.73;;;23.60;54.20;;;;;;5037080;28;20518;-71
2022/07/25 09:54:11;;;;;;;2.22;0.80;;;23.60;54.20;;;;;;5053864;28;20099;-71
2022/07/25 09:56:37;;;;;;;1.70;0.68;;;23.60;55.30;;;;;;5053832;28;20551;-71
2022/07/25 09:59:03;;;;;;;2.95;0.80;;;23.60;54.30;;;;;;5054966;28;20104;-71
2022/07/25 10:01:34;;;;;;;1.80;0.80;;;23.60;54.30;;;;;;5054982;28;20025;-71
2022/07/25 10:04:14;;;;;;;1.42;0.45;;;23.60;54.20;;;;;;5036889;28;20104;-71
2022/07/25 10:06:51;;;;;;;2.35;0.60;;;23.60;54.20;;;;;;5052696;28;20116;-71
2022/07/25 10:09:16;;;;;;;1.98;0.73;;;23.60;54.20;;;;;;5053567;28;20021;-71
2022/07/25 10:12:09;;;;;;;3.95;0.68;;;23.60;54.20;;;;;;5053315;28;20048;-71
2022/07/25 10:14:35;;;;;;;0.80;0.40;;;23.60;54.10;;;;;;5049174;28;20029;-71
2022/07/25 10:17:01;;;;;;;1.33;0.57;;;23.60;54.20;;;;;;5053567;28;20039;-71
2022/07/25 10:19:46;;;;;;;1.30;0.57;;;23.60;54.20;;;;;;5052995;28;20100;-71
2022/07/25 10:22:12;;;;;;;1.67;0.50;;;23.60;54.20;;;;;;5054606;28;20044;-71
2022/07/25 10:24:38;;;;;;;2.53;0.90;;;23.60;54.30;;;;;;5036638;28;20503;-71
2022/07/25 10:27:12;;;;;;;2.33;0.70;;;23.60;54.30;;;;;;5036595;28;20040;-71
2022/07/25 10:29:39;;;;;;;2.50;0.65;;;23.60;54.30;;;;;;5053289;28;20040;-71
2022/07/25 10:32:08;;;;;;;1.27;0.45;;;23.60;54.20;;;;;;5053005;28;20415;-71
2022/07/25 10:34:34;;;;;;;1.10;0.60;;;23.60;54.30;;;;;;5054067;28;20147;-71
2022/07/25 10:37:16;;;;;;;4.47;0.70;;;23.50;54.30;;;;;;5053142;28;20029;-71
2022/07/25 10:39:44;;;;;;;1.25;0.52;;;23.50;54.30;;;;;;5054067;28;20029;-71
2022/07/25 10:42:17;;;;;;;3.45;0.55;;;23.60;54.30;;;;;;5052965;28;20056;-71
2022/07/25 10:44:44;;;;;;;1.30;0.40;;;23.50;54.30;;;;;;5036753;28;20454;-71
2022/07/25 10:47:11;;;;;;;1.05;0.52;;;23.50;54.40;;;;;;5036180;28;20035;-71
2022/07/25 10:49:41;;;;;;;3.33;0.80;;;23.50;54.60;;;;;;5052733;28;20025;-71
2022/07/25 10:52:07;;;;;;;2.45;0.55;;;23.50;54.50;;;;;;5053947;28;20059;-71
2022/07/25 10:54:37;;;;;;;1.23;0.50;;;23.60;54.70;;;;;;5052897;28;20052;-71
2022/07/25 10:57:03;;;;;;;1.02;0.43;;;23.60;54.70;;;;;;5053939;28;20029;-71
2022/07/25 10:59:37;;;;;;;1.02;0.55;;;23.50;54.70;;;;;;5052262;28;20032;-71
2022/07/25 11:02:03;;;;;;;1.70;0.50;;;23.50;54.80;;;;;;5052362;28;20040;-71
2022/07/25 11:04:29;;;;;;;2.17;0.60;;;23.50;54.80;;;;;;5036134;28;20017;-71
2022/07/25 11:06:55;;;;;;;2.47;0.60;;;23.50;54.80;;;;;;5053732;28;20055;-71
2022/07/25 11:09:22;;;;;;;1.70;0.47;;;23.50;54.90;;;;;;5052482;28;20048;-71
2022/07/25 11:11:49;;;;;;;1.77;0.68;;;23.50;54.90;;;;;;5053396;28;20052;-71
2022/07/25 11:14:18;;;;;;;1.45;0.32;;;23.50;55.00;;;;;;5052359;28;20025;-71
2022/07/25 11:16:44;;;;;;;2.25;0.70;;;23.50;55.00;;;;;;5051840;28;20029;-71
2022/07/25 11:19:17;;;;;;;2.47;0.70;;;23.50;55.00;;;;;;5035791;28;20025;-71
2022/07/25 11:21:44;;;;;;;2.05;0.40;;;23.50;55.00;;;;;;5053526;28;20107;-71
2022/07/25 11:24:11;;;;;;;2.10;0.77;;;23.50;55.10;;;;;;5053257;28;20049;-71
2022/07/25 11:26:51;;;;;;;3.28;0.80;;;23.50;55.20;;;;;;5052190;28;20013;-71
2022/07/25 11:29:23;;;;;;;0.63;0.30;;;23.50;55.30;;;;;;5052021;28;20052;-71
2022/07/25 11:31:53;;;;;;;2.00;0.50;;;23.50;55.30;;;;;;5051754;28;20021;-71
2022/07/25 11:34:22;;;;;;;2.03;0.68;;;23.50;55.40;;;;;;5052172;28;20025;-71
2022/07/25 11:36:47;;;;;;;1.52;0.68;;;23.50;55.50;;;;;;5051841;28;20021;-71
2022/07/25 11:39:16;;;;;;;2.67;0.60;;;23.50;55.50;;;;;;5051739;28;20039;-71
2022/07/25 11:41:41;;;;;;;3.47;0.63;;;23.50;55.50;;;;;;5035565;28;20075;-71
2022/07/25 11:44:07;;;;;;;2.35;0.80;;;23.50;55.50;;;;;;5052898;28;20387;-71
2022/07/25 11:46:46;;;;;;;3.40;1.00;;;23.50;55.50;;;;;;5051686;28;20480;-71
2022/07/25 11:49:11;;;;;;;2.90;0.80;;;23.50;55.60;;;;;;5051648;28;20032;-71
2022/07/25 11:51:37;;;;;;;2.10;0.65;;;23.50;55.60;;;;;;5052696;28;20021;-71
2022/07/25 11:54:09;;;;;;;1.58;0.65;;;23.50;55.60;;;;;;5051621;28;20021;-71
2022/07/25 11:56:38;;;;;;;0.88;0.50;;;23.50;55.50;;;;;;5051468;28;20029;-71
2022/07/25 11:59:04;;;;;;;2.55;0.77;;;23.50;55.50;;;;;;5034866;28;20124;-71
2022/07/25 12:01:37;;;;;;;1.80;0.68;;;23.50;55.50;;;;;;5051389;28;20121;-71
2022/07/25 12:04:10;;;;;;;1.63;0.57;;;23.50;55.50;;;;;;5051371;28;20025;-71
2022/07/25 12:06:36;;;;;;;2.53;0.90;;;23.50;55.50;;;;;;5051519;28;20013;-71
2022/07/25 12:09:22;;;;;;;2.40;0.80;;;23.50;55.50;;;;;;5052467;28;20044;-71
2022/07/25 12:11:48;;;;;;;2.58;0.85;;;23.50;55.50;;;;;;5051927;28;20045;-71
2022/07/25 12:14:13;;;;;;;3.20;0.77;;;23.50;55.50;;;;;;5034537;28;20036;-71
2022/07/25 12:16:39;;;;;;;6.45;0.88;;;23.50;55.40;;;;;;5051334;28;20484;-71
2022/07/25 12:19:08;;;;;;;2.40;0.80;;;23.50;55.50;;;;;;5051104;28;20028;-71
2022/07/25 12:21:37;;;;;;;3.35;0.93;;;23.50;55.30;;;;;;5018304;28;20028;-71
2022/07/25 12:24:02;;;;;;;2.28;0.80;;;23.40;55.30;;;;;;5052151;28;20040;-71
2022/07/25 12:26:28;;;;;;;2.65;0.95;;;23.40;55.40;;;;;;5050930;28;20495;-71
2022/07/25 12:28:54;;;;;;;1.85;0.70;;;23.50;55.50;;;;;;5051418;28;20017;-71
2022/07/25 12:31:19;;;;;;;2.47;0.70;;;23.50;55.60;;;;;;5052237;28;20506;-71
2022/07/25 12:33:45;;;;;;;2.78;0.82;;;23.40;55.60;;;;;;5052593;28;20055;-71
2022/07/25 12:36:12;;;;;;;2.35;0.60;;;23.50;55.60;;;;;;5052035;28;20033;-71
2022/07/25 12:38:38;;;;;;;2.97;0.80;;;23.50;55.70;;;;;;5051198;28;20150;-71
2022/07/25 12:41:04;;;;;;;1.70;0.70;;;23.50;55.70;;;;;;5052078;28;20104;-71
2022/07/25 12:43:29;;;;;;;6.35;0.88;;;23.40;55.60;;;;;;5051933;28;20380;-71
2022/07/25 12:45:55;;;;;;;1.27;0.63;;;23.50;55.70;;;;;;5051940;28;20162;-71